Cord, AR (72524)

3:37 PM CDT on September 01, 2014 (GMT -0500)
Newark Wolverton Way | Change Station
CLOSE
Current Station
Personal Weather Station
Location: Newark, AR
Elevation: 328 ft
Nearby Weather Stations

Elev 328 ft 35.71 °N, 91.44 °W | Updated 7 minutes ago

Partly Cloudy
Partly Cloudy
92.5 °F
Feels Like 103 °F
N
3.7
Wind Variable Wind from WSW

Today
High -- | Low -- °F
--% Chance of Precip.
Yesterday
High -- | Low -- °F
Precip. -- in
6:37 AM 7:32 PM
Waxing Crescent, 44% visible
Pressure 29.98 in
Visibility 10.0 miles
Clouds Few 3600 ft
Heat Index 103 °F
Dew Point 74 °F
Humidity 56%
Rainfall 0.00 in
Snow Depth Not available.
UV 9 out of 12
Pollen 10.70 out of 12
Air Quality Not available.
Flu Activity Not available.
METAR KM19 011856Z AUTO 20013KT 10SM FEW036 33/23 A2999 RMK AO2 T03270227 SLP150

More Conditions Fewer Conditions

Pressure 29.98 in
Visibility 10.0 miles
Clouds Few 3600 ft
Heat Index 103 °F
Dew Point 74 °F
Humidity 56%
Rainfall 0.00 in
Snow Depth Not available.
UV 9 out of 12
Pollen 10.70 out of 12
Air Quality Not available.
Flu Activity Not available.
METAR KM19 011856Z AUTO 20013KT 10SM FEW036 33/23 A2999 RMK AO2 T03270227 SLP150

More Conditions Fewer Conditions

10-Day Weather Forecast

Almanac

Astronomy

Sep. 01, 2014 Rise Set
Actual Time 6:37 AM CDT 7:32 PM CDT
Civil Twilight 6:11 AM CDT 7:58 PM CDT
Nautical Twilight 5:40 AM CDT 8:29 PM CDT
Astronomical Twilight 5:08 AM CDT 9:01 PM CDT
Moon 1:10 PM CDT 11:47 PM CDT
Length of Visible Light 13h 47m
Length of Day
12h 55m
Tomorrow will be 2m 10s shorter.
Waxing Crescent, 44% of the Moon is Illuminated
Today
Waxing Crescent
Sep 2
First Quarter
Sep 8
Full
Sep 15
Last Quarter
Sep 24
New

Today's Extremes

State Highs State Lows

Community

WunderPhotos

Upload Photos

1,749,398 photos uploaded!

WunderBlogs® & News

Nearby

Snow Depth

Station Depth Elevation
No new snow has been reported.

Earthquake Activity

City Distance Mag. Time & Date
Tiptonville, Tennessee 109 miles 2.9 11:19 PM CDT
2014-08-31
Minimum magnitude displayed is 2.5.

Coastal Water Temperatures

Place Temperature
No Stations Reporting

Nearby Weather Stations